Time;durP1;ratioP1;P1;durP2;ratioP2;P2;SDS_P1;SDS_P2;PMS_P1;PMS_P2;Temp;Humidity;BMP_temperature;BMP_pressure;BME280_temperature;BME280_humidity;BME280_pressure;Samples;Min_cycle;Max_cycle;Signal;HPM_P1;HPM_P2
2021/07/05 00:02:42;;;;;;;3.22;2.35;;;16.40;99.90;;;;;;6277986;28;20044;-87
2021/07/05 00:05:42;;;;;;;4.38;2.50;;;16.40;99.90;;;;;;6277512;28;20119;-84
2021/07/05 00:08:43;;;;;;;3.72;2.65;;;16.40;99.90;;;;;;6277452;28;20044;-84
2021/07/05 00:11:43;;;;;;;3.67;2.50;;;16.40;99.90;;;;;;6261071;28;20035;-85
2021/07/05 00:14:44;;;;;;;4.13;2.55;;;16.40;99.90;;;;;;6260670;28;20024;-85
2021/07/05 00:17:45;;;;;;;3.38;2.67;;;16.50;99.90;;;;;;6260460;28;20029;-84
2021/07/05 00:20:46;;;;;;;3.55;2.45;;;16.50;99.90;;;;;;6277229;28;20025;-86
2021/07/05 00:23:46;;;;;;;5.05;2.88;;;16.50;99.90;;;;;;6260531;28;20037;-88
2021/07/05 00:26:47;;;;;;;3.30;2.50;;;16.50;99.90;;;;;;6277932;28;20032;-84
2021/07/05 00:29:47;;;;;;;2.92;2.50;;;16.40;99.90;;;;;;6277133;28;20425;-84
2021/07/05 00:32:48;;;;;;;5.40;2.88;;;16.50;99.90;;;;;;6277241;28;20110;-83
2021/07/05 00:35:49;;;;;;;3.47;2.65;;;16.50;99.90;;;;;;6276626;28;20086;-84
2021/07/05 00:38:50;;;;;;;3.92;2.58;;;16.60;99.90;;;;;;6276312;28;20050;-85
2021/07/05 00:41:50;;;;;;;5.47;2.50;;;16.50;99.90;;;;;;6239955;28;20024;-83
2021/07/05 00:44:51;;;;;;;5.25;2.83;;;16.50;99.90;;;;;;6235696;28;20028;-85
2021/07/05 00:47:51;;;;;;;2.53;2.33;;;16.50;99.90;;;;;;6252401;28;20044;-86
2021/07/05 00:50:52;;;;;;;3.08;2.78;;;16.80;99.90;;;;;;6252238;28;20071;-84
2021/07/05 00:53:54;;;;;;;5.78;2.72;;;;;;;;;;6270380;28;20519;-84
2021/07/05 00:56:55;;;;;;;;;;;16.60;99.90;;;;;;6293125;28;20023;-84
2021/07/05 00:59:56;;;;;;;2.95;2.60;;;16.70;99.90;;;;;;6289037;28;19944;-84
2021/07/05 01:02:57;;;;;;;2.97;2.50;;;16.80;99.90;;;;;;6257029;28;20041;-87
2021/07/05 01:05:58;;;;;;;3.90;2.80;;;16.80;99.90;;;;;;6274867;28;20119;-86
2021/07/05 01:08:59;;;;;;;2.90;2.60;;;;;;;;;;6258551;28;20073;-84
2021/07/05 01:11:59;;;;;;;3.17;2.42;;;16.60;99.90;;;;;;6274961;28;20052;-84
2021/07/05 01:15:00;;;;;;;3.58;2.67;;;16.80;99.90;;;;;;6272468;28;20432;-86
2021/07/05 01:18:03;;;;;;;4.05;2.70;;;16.80;99.90;;;;;;6258580;28;20032;-84
2021/07/05 01:21:04;;;;;;;2.85;2.42;;;16.90;99.90;;;;;;6256250;28;20515;-85
2021/07/05 01:24:04;;;;;;;4.05;2.60;;;16.80;99.90;;;;;;6258297;28;20025;-84
2021/07/05 01:27:05;;;;;;;2.75;2.50;;;16.70;99.90;;;;;;6258648;28;20454;-85
2021/07/05 01:30:06;;;;;;;4.45;2.50;;;16.80;99.90;;;;;;6250957;28;20044;-84
2021/07/05 01:33:08;;;;;;;5.22;2.85;;;16.80;99.90;;;;;;6256360;28;20043;-84
2021/07/05 01:36:11;;;;;;;2.28;2.08;;;16.70;99.90;;;;;;6251002;28;20033;-85
2021/07/05 01:39:12;;;;;;;2.67;2.40;;;16.80;99.90;;;;;;6259557;28;20056;-86
2021/07/05 01:42:12;;;;;;;2.88;2.60;;;16.70;99.90;;;;;;6272418;28;20410;-84
2021/07/05 01:45:13;;;;;;;2.78;2.33;;;16.80;99.90;;;;;;6248285;28;20459;-85
2021/07/05 01:48:13;;;;;;;2.97;2.50;;;16.80;99.90;;;;;;6256404;28;20036;-84
2021/07/05 01:51:14;;;;;;;2.83;2.35;;;16.80;99.90;;;;;;6247480;28;20434;-84
2021/07/05 01:54:15;;;;;;;3.47;2.65;;;16.80;99.90;;;;;;6251311;28;20029;-84
2021/07/05 01:57:24;;;;;;;2.95;2.67;;;17.00;99.90;;;;;;6274806;28;20025;-83
2021/07/05 02:00:27;;;;;;;4.78;2.53;;;16.70;99.90;;;;;;6258204;28;20025;-84
2021/07/05 02:03:27;;;;;;;;;;;16.70;99.90;;;;;;6237462;28;20033;-85
2021/07/05 02:06:28;;;;;;;3.17;2.70;;;16.60;99.90;;;;;;6270447;28;19915;-83
2021/07/05 02:09:28;;;;;;;2.83;2.50;;;16.60;99.90;;;;;;6257451;28;20093;-84
2021/07/05 02:12:29;;;;;;;3.33;2.58;;;16.60;99.90;;;;;;6238750;28;20033;-84
2021/07/05 02:15:29;;;;;;;2.80;2.60;;;16.70;99.90;;;;;;6257448;28;20072;-84
2021/07/05 02:18:30;;;;;;;4.57;2.60;;;16.50;99.90;;;;;;6243913;28;20573;-85
2021/07/05 02:21:31;;;;;;;4.25;2.75;;;16.50;99.90;;;;;;6235784;28;20114;-87
2021/07/05 02:24:32;;;;;;;3.25;2.90;;;16.40;99.90;;;;;;6254333;28;20025;-84
2021/07/05 02:27:33;;;;;;;3.10;2.63;;;16.60;99.90;;;;;;6238785;28;20481;-84
2021/07/05 02:30:33;;;;;;;3.13;2.85;;;16.30;99.90;;;;;;6248426;28;20029;-85
2021/07/05 02:33:34;;;;;;;4.28;2.63;;;16.50;99.90;;;;;;6233838;28;20074;-84
2021/07/05 02:36:35;;;;;;;4.03;2.50;;;16.20;99.90;;;;;;6250260;28;20048;-85
2021/07/05 02:39:36;;;;;;;5.97;2.72;;;16.20;99.90;;;;;;6240734;28;20049;-84
2021/07/05 02:42:37;;;;;;;3.22;2.65;;;16.20;99.90;;;;;;6269177;28;20035;-83
2021/07/05 02:45:37;;;;;;;2.70;2.50;;;16.20;99.90;;;;;;6257097;28;20433;-84
2021/07/05 02:48:40;;;;;;;4.57;2.70;;;16.20;99.90;;;;;;6250914;28;20102;-86
2021/07/05 02:51:41;;;;;;;4.88;2.53;;;16.10;99.90;;;;;;6257745;28;20112;-84
2021/07/05 02:54:42;;;;;;;3.45;2.33;;;15.90;99.90;;;;;;6257483;28;20028;-83
2021/07/05 02:57:45;;;;;;;3.17;2.70;;;16.00;99.90;;;;;;6256882;28;20036;-84
2021/07/05 03:00:50;;;;;;;4.00;2.63;;;16.20;99.90;;;;;;6257534;28;20032;-84
2021/07/05 03:03:50;;;;;;;3.92;2.70;;;16.00;99.90;;;;;;6256947;28;20107;-84
2021/07/05 03:06:51;;;;;;;4.05;2.45;;;15.90;99.90;;;;;;6256880;28;20028;-84
2021/07/05 03:09:51;;;;;;;3.45;2.90;;;16.00;99.90;;;;;;6244105;28;20067;-84
2021/07/05 03:12:52;;;;;;;3.55;2.75;;;15.90;99.90;;;;;;6264182;28;20032;-86
2021/07/05 03:15:54;;;;;;;3.40;2.55;;;16.00;99.90;;;;;;6270117;28;20165;-85
2021/07/05 03:18:54;;;;;;;6.63;2.97;;;15.90;99.90;;;;;;6249108;28;20025;-84
2021/07/05 03:21:55;;;;;;;4.00;2.60;;;15.80;99.90;;;;;;6257470;28;20405;-84
2021/07/05 03:24:55;;;;;;;4.55;2.70;;;16.00;99.90;;;;;;6256211;28;20430;-87
2021/07/05 03:27:56;;;;;;;2.88;2.50;;;15.90;99.90;;;;;;6277384;28;20040;-84
2021/07/05 03:30:57;;;;;;;3.70;3.28;;;;;;;;;;6261473;28;20040;-84
2021/07/05 03:33:58;;;;;;;4.35;3.78;;;15.90;99.90;;;;;;6264274;28;20460;-85
2021/07/05 03:36:59;;;;;;;4.53;2.70;;;16.00;99.90;;;;;;6278029;28;20037;-84
2021/07/05 03:39:59;;;;;;;3.75;2.67;;;16.00;99.90;;;;;;6255571;28;20057;-85
2021/07/05 03:43:00;;;;;;;2.63;2.42;;;16.20;99.90;;;;;;6261644;28;20139;-85
2021/07/05 03:46:01;;;;;;;7.97;3.30;;;16.00;99.90;;;;;;6260970;28;20104;-85
2021/07/05 03:49:02;;;;;;;3.33;2.63;;;16.20;99.90;;;;;;6260709;28;20040;-84
2021/07/05 03:52:03;;;;;;;3.05;2.58;;;16.00;99.90;;;;;;6260945;28;20070;-83
2021/07/05 03:55:08;;;;;;;2.90;2.55;;;16.00;99.90;;;;;;6260515;28;20032;-86
2021/07/05 03:58:08;;;;;;;3.72;2.60;;;16.00;99.90;;;;;;6260267;28;20067;-84
2021/07/05 04:01:09;;;;;;;4.00;3.22;;;;;;;;;;6277456;28;20463;-82
2021/07/05 04:04:10;;;;;;;4.03;2.90;;;;;;;;;;6293590;28;20028;-83
2021/07/05 04:07:11;;;;;;;3.92;2.88;;;15.80;99.90;;;;;;6293521;28;20071;-83
2021/07/05 04:10:12;;;;;;;6.30;3.03;;;15.80;99.90;;;;;;6283402;28;20037;-83
2021/07/05 04:13:13;;;;;;;4.57;3.08;;;15.90;99.90;;;;;;6268706;28;20025;-85
2021/07/05 04:16:13;;;;;;;4.70;2.95;;;15.80;99.90;;;;;;6257448;28;20436;-83
2021/07/05 04:19:14;;;;;;;3.65;3.10;;;15.60;99.90;;;;;;6256919;28;20402;-82
2021/07/05 04:22:15;;;;;;;3.47;2.90;;;;;;;;;;6269891;28;20021;-86
2021/07/05 04:25:16;;;;;;;2.90;2.63;;;;;;;;;;6273861;28;20094;-83
2021/07/05 04:28:17;;;;;;;3.25;2.90;;;15.90;99.90;;;;;;6270760;28;20115;-87
2021/07/05 04:31:18;;;;;;;5.70;2.60;;;15.90;99.90;;;;;;6272214;28;20093;-84
2021/07/05 04:34:19;;;;;;;2.92;2.60;;;;;;;;;;6291719;28;20036;-85
2021/07/05 04:37:19;;;;;;;3.25;2.80;;;15.90;99.90;;;;;;6263464;28;20029;-84
2021/07/05 04:40:23;;;;;;;6.18;3.30;;;15.80;99.90;;;;;;6252303;28;20160;-82
2021/07/05 04:43:23;;;;;;;5.68;2.95;;;15.90;99.90;;;;;;6251261;28;20509;-84
2021/07/05 04:46:26;;;;;;;6.95;3.15;;;15.90;99.90;;;;;;6275956;28;20024;-84
2021/07/05 04:49:26;;;;;;;3.50;2.75;;;16.10;99.90;;;;;;6264767;28;20471;-86
2021/07/05 04:52:27;;;;;;;3.15;2.70;;;16.30;99.90;;;;;;6254684;28;20092;-84
2021/07/05 04:55:28;;;;;;;3.10;2.72;;;16.40;99.90;;;;;;6244427;28;20576;-83
2021/07/05 04:58:29;;;;;;;4.45;2.95;;;16.40;99.90;;;;;;6254138;28;20029;-84
2021/07/05 05:01:29;;;;;;;2.95;2.45;;;16.50;99.90;;;;;;6275600;28;21059;-85
2021/07/05 05:04:30;;;;;;;2.83;2.40;;;16.40;99.90;;;;;;6276047;28;20043;-82
2021/07/05 05:07:30;;;;;;;4.43;2.60;;;16.30;99.90;;;;;;6261242;28;20037;-82
2021/07/05 05:10:31;;;;;;;3.45;2.63;;;16.20;99.90;;;;;;6266744;28;20040;-83
2021/07/05 05:13:31;;;;;;;5.25;3.30;;;16.20;99.90;;;;;;6251879;28;20104;-83
2021/07/05 05:16:32;;;;;;;7.70;2.88;;;16.20;99.90;;;;;;6235009;28;20017;-84
2021/07/05 05:19:34;;;;;;;3.75;2.72;;;16.20;99.90;;;;;;6258557;28;20029;-84
2021/07/05 05:22:34;;;;;;;8.48;2.88;;;16.20;99.90;;;;;;6268441;28;20382;-84
2021/07/05 05:25:35;;;;;;;5.72;3.13;;;16.20;99.90;;;;;;6268171;28;20033;-86
2021/07/05 05:28:36;;;;;;;5.90;2.58;;;16.40;99.90;;;;;;6235134;28;20040;-85
2021/07/05 05:31:37;;;;;;;3.90;2.80;;;16.20;99.90;;;;;;6236422;28;20059;-83
2021/07/05 05:34:37;;;;;;;5.30;2.92;;;16.20;99.90;;;;;;6234637;28;20056;-84
2021/07/05 05:37:38;;;;;;;5.15;2.92;;;16.20;99.90;;;;;;6259433;28;20115;-84
2021/07/05 05:40:39;;;;;;;5.18;3.28;;;16.20;99.90;;;;;;6250614;28;20051;-85
2021/07/05 05:43:39;;;;;;;4.97;2.60;;;16.50;99.90;;;;;;6241299;28;20027;-82
2021/07/05 05:46:40;;;;;;;6.70;3.10;;;16.20;99.90;;;;;;6273448;28;20055;-83
2021/07/05 05:49:40;;;;;;;3.60;2.85;;;16.10;99.90;;;;;;6270047;28;20043;-83
2021/07/05 05:52:41;;;;;;;3.53;2.83;;;16.20;99.90;;;;;;6243124;28;20032;-83
2021/07/05 05:55:46;;;;;;;4.03;2.80;;;16.30;99.90;;;;;;6258165;28;20028;-83
2021/07/05 05:58:47;;;;;;;5.93;3.15;;;16.30;99.90;;;;;;6274002;28;20036;-83
2021/07/05 06:01:50;;;;;;;4.78;2.60;;;16.30;99.90;;;;;;6274143;28;20058;-83
2021/07/05 06:04:51;;;;;;;3.30;2.58;;;16.40;99.90;;;;;;6275151;28;20037;-82
2021/07/05 06:07:52;;;;;;;3.08;2.58;;;16.40;99.90;;;;;;6274238;28;20119;-82
2021/07/05 06:10:52;;;;;;;3.10;2.80;;;16.50;99.90;;;;;;6255631;28;20029;-82
2021/07/05 06:13:53;;;;;;;3.08;2.67;;;16.60;99.90;;;;;;6250246;28;20033;-84
2021/07/05 06:16:54;;;;;;;3.17;2.88;;;16.60;99.90;;;;;;6250556;28;20405;-83
2021/07/05 06:19:54;;;;;;;4.78;2.88;;;16.60;99.90;;;;;;6247932;28;20031;-81
2021/07/05 06:22:56;;;;;;;6.50;3.03;;;16.70;99.90;;;;;;6250553;28;20032;-82
2021/07/05 06:25:58;;;;;;;4.57;2.97;;;16.70;99.90;;;;;;6274159;28;20446;-82
2021/07/05 06:28:58;;;;;;;;;;;16.80;99.90;;;;;;6241154;28;20049;-84
2021/07/05 06:31:59;;;;;;;3.97;2.60;;;16.90;99.90;;;;;;6250266;28;20651;-82
2021/07/05 06:34:59;;;;;;;4.10;2.63;;;16.90;99.90;;;;;;6248208;28;20067;-83
2021/07/05 06:38:00;;;;;;;4.15;2.50;;;16.90;99.90;;;;;;6254466;28;20056;-82
2021/07/05 06:41:01;;;;;;;4.47;2.95;;;16.90;99.90;;;;;;6273492;28;20028;-83
2021/07/05 06:44:01;;;;;;;4.63;2.70;;;16.80;99.90;;;;;;6274316;28;20039;-83
2021/07/05 06:47:02;;;;;;;2.72;2.40;;;16.90;99.90;;;;;;6274017;28;20020;-83
2021/07/05 06:50:04;;;;;;;3.38;2.60;;;17.10;99.90;;;;;;6256895;28;20120;-84
2021/07/05 06:53:05;;;;;;;3.38;2.50;;;16.90;99.90;;;;;;6257332;28;20058;-84
2021/07/05 06:56:06;;;;;;;3.38;2.60;;;17.10;99.90;;;;;;6273699;28;20389;-83
2021/07/05 06:59:07;;;;;;;3.58;2.70;;;17.00;99.90;;;;;;6256897;28;20037;-83
2021/07/05 07:02:07;;;;;;;2.72;2.45;;;17.10;99.90;;;;;;6277633;28;20417;-83
2021/07/05 07:05:13;;;;;;;5.85;2.45;;;17.00;99.90;;;;;;6278956;28;20036;-82
2021/07/05 07:08:14;;;;;;;2.78;2.30;;;17.20;99.90;;;;;;6278957;28;20373;-83
2021/07/05 07:11:15;;;;;;;4.95;2.30;;;17.00;99.90;;;;;;6278899;28;20024;-83
2021/07/05 07:14:18;;;;;;;2.15;1.95;;;17.00;99.90;;;;;;6277083;28;20108;-82
2021/07/05 07:20:20;;;;;;;3.38;2.67;;;;;;;;;;6275885;28;20051;-83
2021/07/05 07:23:20;;;;;;;2.75;2.13;;;16.70;99.90;;;;;;6278161;28;20028;-83
2021/07/05 07:26:21;;;;;;;3.15;2.05;;;;;;;;;;6278012;28;20028;-87
2021/07/05 07:29:22;;;;;;;4.38;2.90;;;16.70;99.90;;;;;;6278248;28;20086;-83
2021/07/05 07:32:23;;;;;;;3.38;2.42;;;16.90;99.90;;;;;;6278715;28;20032;-88
2021/07/05 07:35:23;;;;;;;2.30;2.10;;;16.80;99.90;;;;;;6262132;28;20032;-88
2021/07/05 07:38:24;;;;;;;3.92;2.30;;;16.90;99.90;;;;;;6277469;28;20490;-84
2021/07/05 07:41:29;;;;;;;2.95;2.60;;;;;;;;;;6277755;28;20028;-88
2021/07/05 07:44:30;;;;;;;2.50;2.30;;;17.30;99.90;;;;;;6278861;28;20029;-86
2021/07/05 07:47:31;;;;;;;3.25;2.40;;;17.40;99.90;;;;;;6277485;28;20028;-85
2021/07/05 07:50:32;;;;;;;2.58;2.17;;;17.50;99.90;;;;;;6261944;28;20505;-87
2021/07/05 07:53:32;;;;;;;2.80;2.00;;;17.80;99.90;;;;;;6278019;28;20482;-85
2021/07/05 07:56:34;;;;;;;4.53;2.20;;;17.90;99.90;;;;;;6278088;28;20074;-89
2021/07/05 07:59:35;;;;;;;3.20;2.38;;;17.90;99.90;;;;;;6278157;28;20044;-81
2021/07/05 08:02:36;;;;;;;2.20;2.00;;;18.00;99.90;;;;;;6293949;28;20035;-82
2021/07/05 08:05:36;;;;;;;5.22;2.30;;;17.90;99.90;;;;;;6294163;28;20548;-82
2021/07/05 08:08:37;;;;;;;3.05;2.30;;;18.00;99.90;;;;;;6276963;28;20130;-83
2021/07/05 08:11:38;;;;;;;2.65;1.88;;;18.10;99.90;;;;;;6277105;28;20103;-81
2021/07/05 08:14:38;;;;;;;2.10;1.90;;;18.10;99.90;;;;;;6293527;28;20039;-83
2021/07/05 08:17:42;;;;;;;2.00;1.90;;;18.20;99.90;;;;;;6277170;28;20102;-83
2021/07/05 08:20:42;;;;;;;2.28;1.73;;;18.30;99.90;;;;;;6277032;28;20159;-83
2021/07/05 08:23:43;;;;;;;4.05;1.88;;;18.50;99.90;;;;;;6260593;28;20459;-83
2021/07/05 08:26:43;;;;;;;1.63;1.52;;;18.50;99.90;;;;;;6260229;28;20090;-81
2021/07/05 08:29:44;;;;;;;1.98;1.88;;;18.60;99.90;;;;;;6276504;28;20048;-82
2021/07/05 08:32:45;;;;;;;1.88;1.73;;;18.70;99.90;;;;;;6293682;28;20047;-89
2021/07/05 08:35:45;;;;;;;1.75;1.65;;;18.80;99.90;;;;;;6276351;28;20060;-82
2021/07/05 08:38:47;;;;;;;2.55;2.00;;;18.80;99.90;;;;;;6276118;28;20497;-86
2021/07/05 08:41:47;;;;;;;2.30;2.10;;;18.80;99.90;;;;;;6275468;28;20034;-81
2021/07/05 08:44:48;;;;;;;3.45;2.45;;;18.80;99.90;;;;;;6292254;28;20333;-81
2021/07/05 08:47:50;;;;;;;3.70;2.63;;;18.70;99.90;;;;;;6290100;28;20032;-82
2021/07/05 08:50:51;;;;;;;1.17;1.15;;;18.80;99.90;;;;;;6259159;28;20222;-82
2021/07/05 08:53:52;;;;;;;1.50;1.40;;;18.90;99.90;;;;;;6257937;28;20027;-83
2021/07/05 08:56:53;;;;;;;1.70;1.60;;;18.80;99.90;;;;;;6291488;28;20748;-81
2021/07/05 08:59:57;;;;;;;1.50;1.40;;;18.90;99.90;;;;;;6258394;28;20664;-87
2021/07/05 09:02:59;;;;;;;1.60;1.50;;;19.00;99.90;;;;;;6260510;28;20047;-80
2021/07/05 09:06:13;;;;;;;;;;;18.60;99.90;;;;;;6259881;28;20401;-81
2021/07/05 09:09:13;;;;;;;1.75;1.65;;;19.10;99.90;;;;;;6276075;28;20023;-82
2021/07/05 09:12:14;;;;;;;2.88;1.80;;;19.00;99.90;;;;;;6275685;28;20028;-83
2021/07/05 09:15:14;;;;;;;2.00;1.80;;;19.20;99.90;;;;;;6275774;28;20044;-83
2021/07/05 09:18:36;;;;;;;1.95;1.77;;;19.10;99.90;;;;;;6275694;28;20484;-82
2021/07/05 09:21:36;;;;;;;2.55;1.65;;;19.20;99.90;;;;;;6253700;28;20021;-82
2021/07/05 09:24:44;;;;;;;2.80;1.90;;;19.00;99.90;;;;;;6275137;28;20060;-90
2021/07/05 09:27:45;;;;;;;1.80;1.63;;;18.90;99.90;;;;;;6275074;28;20029;-82
2021/07/05 09:30:47;;;;;;;1.65;1.55;;;19.00;99.90;;;;;;6275445;28;20056;-83
2021/07/05 09:33:48;;;;;;;;;;;19.30;99.90;;;;;;6259112;28;20070;-82
2021/07/05 09:36:52;;;;;;;2.85;2.10;;;19.20;99.90;;;;;;6275223;28;19908;-83
2021/07/05 09:40:02;;;;;;;6.60;2.30;;;19.20;99.90;;;;;;6275158;28;20490;-82
2021/07/05 09:43:19;;;;;;;2.95;2.10;;;19.10;99.90;;;;;;6293115;28;20024;-85
2021/07/05 09:46:40;;;;;;;3.03;2.05;;;19.10;99.90;;;;;;6276978;28;20056;-84
2021/07/05 09:49:41;;;;;;;3.28;2.38;;;19.00;99.90;;;;;;6276197;28;20082;-84
2021/07/05 09:52:41;;;;;;;2.65;2.45;;;19.30;99.90;;;;;;6258151;28;20033;-83
2021/07/05 09:55:42;;;;;;;2.33;2.13;;;;;;;;;;6258461;28;20024;-85
2021/07/05 09:58:43;;;;;;;5.53;2.30;;;19.50;99.90;;;;;;6274876;28;20390;-84
2021/07/05 10:01:48;;;;;;;4.50;2.30;;;19.60;99.90;;;;;;6274751;28;20024;-85
2021/07/05 10:04:49;;;;;;;3.33;2.40;;;19.80;99.90;;;;;;6274920;28;20074;-83
2021/07/05 10:08:09;;;;;;;3.70;2.40;;;20.00;99.90;;;;;;6274999;28;20029;-84
2021/07/05 10:11:10;;;;;;;2.55;2.35;;;;;;;;;;6274581;28;20063;-84
2021/07/05 10:14:13;;;;;;;3.75;2.75;;;;;;;;;;6291436;28;20480;-86
2021/07/05 10:17:16;;;;;;;2.40;2.20;;;;;;;;;;6291240;28;20027;-82
2021/07/05 10:20:19;;;;;;;2.40;2.10;;;19.90;99.90;;;;;;6291696;28;20032;-82
2021/07/05 10:23:20;;;;;;;2.30;1.92;;;19.80;99.90;;;;;;6274447;28;20032;-83
2021/07/05 10:26:20;;;;;;;3.83;2.13;;;19.90;99.90;;;;;;6291278;28;20032;-82
2021/07/05 10:29:21;;;;;;;3.45;2.00;;;20.10;99.90;;;;;;6274041;28;20082;-83
2021/07/05 10:32:22;;;;;;;1.85;1.75;;;20.60;99.90;;;;;;6257745;28;20032;-83
2021/07/05 10:35:25;;;;;;;2.45;2.20;;;20.40;99.90;;;;;;6258795;28;20036;-82
2021/07/05 10:38:51;;;;;;;3.35;2.58;;;20.60;99.90;;;;;;6279545;28;20044;-82
2021/07/05 10:41:52;;;;;;;4.63;2.58;;;20.70;99.90;;;;;;6279449;28;20035;-83
2021/07/05 10:44:53;;;;;;;2.85;2.03;;;;;;;;;;6278993;28;20492;-82
2021/07/05 10:47:59;;;;;;;2.05;1.95;;;20.80;99.90;;;;;;6279170;28;20484;-82
2021/07/05 10:51:00;;;;;;;3.38;1.95;;;21.10;99.90;;;;;;6279724;28;20425;-82
2021/07/05 10:54:00;;;;;;;1.83;1.73;;;21.60;99.90;;;;;;6262577;28;20024;-81
2021/07/05 10:57:01;;;;;;;2.40;1.67;;;21.60;99.40;;;;;;6278677;28;20458;-82
2021/07/05 11:00:23;;;;;;;2.95;2.10;;;21.50;99.90;;;;;;6278725;28;20020;-80
2021/07/05 11:03:40;;;;;;;2.15;1.85;;;21.40;98.40;;;;;;6281073;28;20036;-81
2021/07/05 11:06:41;;;;;;;2.38;1.65;;;21.60;98.70;;;;;;6296739;28;20103;-81
2021/07/05 11:09:57;;;;;;;2.08;1.90;;;21.80;99.70;;;;;;6278320;28;20155;-86
2021/07/05 11:13:03;;;;;;;1.63;1.52;;;21.60;99.70;;;;;;6272260;28;20067;-87
2021/07/05 11:16:04;;;;;;;2.60;1.92;;;21.40;98.10;;;;;;6278692;28;20028;-87
2021/07/05 11:19:06;;;;;;;3.35;1.80;;;21.20;99.00;;;;;;6278948;28;20032;-87
2021/07/05 11:22:11;;;;;;;1.95;1.85;;;21.20;99.70;;;;;;6278547;28;20028;-89
2021/07/05 11:25:17;;;;;;;1.73;1.63;;;21.30;97.90;;;;;;6279312;28;20033;-86
2021/07/05 11:28:18;;;;;;;4.45;1.95;;;21.00;98.70;;;;;;6295467;28;20075;-87
2021/07/05 11:31:20;;;;;;;2.73;2.10;;;20.90;99.70;;;;;;6278403;28;20033;-87
2021/07/05 11:34:38;;;;;;;2.25;2.00;;;21.00;99.10;;;;;;6278557;28;20039;-89
2021/07/05 11:37:39;;;;;;;1.73;1.60;;;;;;;;;;6270812;28;20036;-87
2021/07/05 11:40:44;;;;;;;2.90;1.90;;;21.20;98.60;;;;;;6269677;28;20055;-88
2021/07/05 11:43:57;;;;;;;2.00;1.90;;;21.20;99.30;;;;;;6291155;28;20036;-88
2021/07/05 11:46:57;;;;;;;2.28;2.08;;;21.00;97.70;;;;;;6280363;28;20032;-88
2021/07/05 11:50:27;;;;;;;2.47;1.92;;;21.00;99.00;;;;;;6286334;28;20539;-87
2021/07/05 11:53:28;;;;;;;2.25;1.88;;;;;;;;;;6297771;28;20032;-87
2021/07/05 11:56:35;;;;;;;1.83;1.73;;;21.50;98.10;;;;;;6293861;28;20062;-90
2021/07/05 11:59:36;;;;;;;2.28;1.95;;;21.50;99.10;;;;;;6276880;28;20028;-90
2021/07/05 12:02:38;;;;;;;2.33;2.20;;;;;;;;;;6271137;28;20049;-86
2021/07/05 12:05:41;;;;;;;2.72;2.50;;;21.20;99.40;;;;;;6287143;28;20028;-87
2021/07/05 12:08:42;;;;;;;2.38;2.08;;;21.10;99.80;;;;;;6279944;28;20028;-87
2021/07/05 12:11:44;;;;;;;2.42;1.98;;;20.70;99.40;;;;;;6276915;28;20477;-86
2021/07/05 12:14:46;;;;;;;2.20;2.00;;;20.70;99.90;;;;;;6263663;28;20107;-87
2021/07/05 12:17:51;;;;;;;1.98;1.88;;;22.10;99.90;;;;;;6260823;28;20035;-88
2021/07/05 12:20:58;;;;;;;2.20;2.00;;;20.30;99.90;;;;;;6272528;28;20085;-88
2021/07/05 12:24:13;;;;;;;3.55;2.13;;;20.70;99.90;;;;;;6286958;28;20149;-90
2021/07/05 12:27:15;;;;;;;3.45;2.20;;;20.00;99.90;;;;;;6265709;28;20075;-89
2021/07/05 12:30:21;;;;;;;;;;;20.00;99.90;;;;;;6256061;28;20047;-89
2021/07/05 12:33:21;;;;;;;2.30;2.10;;;20.00;99.90;;;;;;6272382;28;20368;-89
2021/07/05 12:36:22;;;;;;;2.42;2.00;;;;;;;;;;6272561;28;20042;-90
2021/07/05 12:39:23;;;;;;;2.72;2.40;;;21.40;99.90;;;;;;6275103;28;20089;-86
2021/07/05 12:42:24;;;;;;;3.17;2.03;;;;;;;;;;6238461;28;20163;-87
2021/07/05 12:45:27;;;;;;;2.28;2.05;;;22.30;99.90;;;;;;6277262;28;20036;-88
2021/07/05 12:48:31;;;;;;;2.22;2.03;;;;;;;;;;6260030;28;20036;-89
2021/07/05 12:51:32;;;;;;;2.20;2.00;;;;;;;;;;6252935;28;20533;-86
2021/07/05 12:54:33;;;;;;;3.30;2.22;;;22.80;97.00;;;;;;6258570;28;20613;-86
2021/07/05 12:57:34;;;;;;;2.42;2.20;;;;;;;;;;6235536;28;20037;-88
2021/07/05 13:00:44;;;;;;;4.43;2.25;;;22.70;97.30;;;;;;6257265;28;20025;-88
2021/07/05 13:04:01;;;;;;;3.58;2.50;;;22.30;99.40;;;;;;6271688;28;20068;-88
2021/07/05 13:07:03;;;;;;;2.45;2.25;;;21.70;99.90;;;;;;6252955;28;20032;-84
2021/07/05 13:10:08;;;;;;;2.85;2.10;;;21.90;99.90;;;;;;6239218;28;20091;-87
2021/07/05 13:13:11;;;;;;;4.38;2.67;;;21.80;99.90;;;;;;6238008;28;20156;-85
2021/07/05 13:16:29;;;;;;;4.07;2.50;;;22.30;99.90;;;;;;6253355;28;20044;-85
2021/07/05 13:19:30;;;;;;;3.40;2.30;;;23.00;99.80;;;;;;6242834;28;20020;-89
2021/07/05 13:22:31;;;;;;;2.20;2.00;;;23.60;98.90;;;;;;6251276;28;20059;-84
2021/07/05 13:25:31;;;;;;;2.88;2.13;;;23.90;97.30;;;;;;6242485;28;20066;-89
2021/07/05 13:28:32;;;;;;;3.15;2.25;;;23.90;97.10;;;;;;6273110;28;20041;-85
2021/07/05 13:31:34;;;;;;;2.63;2.05;;;23.60;96.00;;;;;;6272982;28;20532;-80
2021/07/05 13:34:44;;;;;;;3.17;2.38;;;23.60;96.60;;;;;;6251017;28;20072;-80
2021/07/05 13:37:47;;;;;;;3.53;2.25;;;23.50;96.30;;;;;;6275426;28;20032;-86
2021/07/05 13:40:55;;;;;;;5.35;2.20;;;23.40;96.40;;;;;;6254804;28;20063;-87
2021/07/05 13:43:59;;;;;;;3.97;2.53;;;23.50;96.60;;;;;;6242812;28;20028;-86
2021/07/05 13:47:23;;;;;;;2.58;2.30;;;23.40;96.90;;;;;;6258808;28;20378;-87
2021/07/05 13:50:24;;;;;;;2.80;2.00;;;23.40;95.70;;;;;;6266316;28;20044;-84
2021/07/05 13:53:30;;;;;;;4.32;2.67;;;23.10;96.20;;;;;;6250020;28;20055;-82
2021/07/05 13:56:33;;;;;;;2.67;2.30;;;;;;;;;;6254155;28;20029;-82
2021/07/05 13:59:34;;;;;;;3.17;2.30;;;22.80;95.90;;;;;;6274971;28;20052;-83
2021/07/05 14:02:34;;;;;;;2.78;2.53;;;22.70;96.50;;;;;;6274631;28;20074;-82
2021/07/05 14:05:35;;;;;;;2.85;1.95;;;22.80;97.50;;;;;;6258041;28;20484;-82
2021/07/05 14:08:36;;;;;;;2.20;2.00;;;23.10;97.40;;;;;;6254499;28;20075;-84
2021/07/05 14:11:36;;;;;;;2.42;2.10;;;23.60;97.50;;;;;;6233843;28;20056;-82
2021/07/05 14:14:38;;;;;;;3.33;2.10;;;;;;;;;;6240941;28;20028;-82
2021/07/05 14:17:38;;;;;;;2.30;2.10;;;24.30;93.50;;;;;;6274253;28;20032;-83
2021/07/05 14:20:39;;;;;;;2.28;2.08;;;24.20;94.50;;;;;;6250073;28;20426;-83
2021/07/05 14:23:40;;;;;;;2.22;2.03;;;24.00;94.30;;;;;;6240944;28;20071;-86
2021/07/05 14:26:41;;;;;;;5.07;2.50;;;;;;;;;;6252654;28;20036;-83
2021/07/05 14:29:41;;;;;;;2.63;2.20;;;23.70;93.50;;;;;;6274250;28;20423;-87
2021/07/05 14:32:42;;;;;;;2.77;2.20;;;23.50;94.20;;;;;;6250887;28;20075;-84
2021/07/05 14:35:43;;;;;;;3.28;2.95;;;;;;;;;;6257521;28;20056;-84
2021/07/05 14:38:44;;;;;;;4.33;2.50;;;24.00;93.70;;;;;;6267126;28;20057;-86
2021/07/05 14:41:44;;;;;;;3.60;2.13;;;24.60;94.80;;;;;;6274492;28;20109;-84
2021/07/05 14:44:49;;;;;;;3.77;2.17;;;24.60;92.80;;;;;;6274516;28;20123;-85
2021/07/05 14:47:52;;;;;;;3.05;2.00;;;24.80;92.00;;;;;;6274647;28;20481;-83
2021/07/05 14:50:53;;;;;;;3.88;2.40;;;25.50;93.90;;;;;;6257202;28;20124;-83
2021/07/05 14:53:54;;;;;;;2.80;2.10;;;25.60;94.10;;;;;;6274942;28;20387;-83
2021/07/05 14:56:54;;;;;;;2.37;1.97;;;25.00;90.30;;;;;;6274052;28;20020;-82
2021/07/05 14:59:55;;;;;;;2.77;2.30;;;26.40;91.30;;;;;;6274079;28;20025;-85
2021/07/05 15:02:59;;;;;;;2.80;1.90;;;25.00;91.60;;;;;;6257122;28;20032;-83
2021/07/05 15:06:00;;;;;;;2.40;2.20;;;;;;;;;;6258308;28;20028;-84
2021/07/05 15:09:00;;;;;;;2.00;1.90;;;24.60;92.20;;;;;;6290258;28;20448;-85
2021/07/05 15:12:01;;;;;;;3.77;2.20;;;24.70;92.20;;;;;;6257367;28;20070;-84
2021/07/05 15:15:06;;;;;;;3.53;2.20;;;24.40;93.00;;;;;;6256990;28;20111;-83
2021/07/05 15:18:06;;;;;;;2.35;2.10;;;24.40;92.70;;;;;;6274350;28;20041;-84
2021/07/05 15:21:10;;;;;;;2.10;1.80;;;24.50;93.70;;;;;;6257562;28;20129;-85
2021/07/05 15:24:10;;;;;;;2.55;2.05;;;24.60;91.70;;;;;;6278302;28;20093;-85
2021/07/05 15:27:11;;;;;;;3.20;2.20;;;24.50;92.70;;;;;;6262044;28;20494;-84
2021/07/05 15:30:12;;;;;;;4.37;2.33;;;24.40;92.40;;;;;;6261880;28;20033;-84
2021/07/05 15:33:12;;;;;;;2.60;2.00;;;24.60;92.50;;;;;;6278492;28;20032;-85
2021/07/05 15:36:13;;;;;;;3.53;2.00;;;24.70;93.00;;;;;;6278815;28;20368;-84
2021/07/05 15:39:14;;;;;;;2.63;2.00;;;24.80;92.60;;;;;;6261441;28;20139;-84
2021/07/05 15:42:14;;;;;;;1.83;1.73;;;25.10;92.40;;;;;;6277953;28;20394;-85
2021/07/05 15:45:16;;;;;;;2.37;2.13;;;25.70;90.10;;;;;;6278362;28;20025;-84
2021/07/05 15:48:17;;;;;;;2.47;2.10;;;25.00;89.00;;;;;;6277591;28;20037;-83
2021/07/05 15:51:18;;;;;;;2.87;2.03;;;24.80;90.40;;;;;;6278022;28;20486;-84
2021/07/05 15:54:18;;;;;;;2.40;2.13;;;24.90;91.00;;;;;;6278184;28;20041;-83
2021/07/05 15:57:20;;;;;;;3.07;2.13;;;24.90;99.90;;;;;;6278105;28;20025;-82
2021/07/05 16:00:21;;;;;;;2.17;1.98;;;;;;;;;;6294437;28;20024;-88
2021/07/05 16:03:23;;;;;;;3.00;2.10;;;24.80;96.10;;;;;;6277916;28;20023;-84
2021/07/05 16:06:23;;;;;;;2.40;2.20;;;24.80;95.50;;;;;;6277763;28;20028;-82